sensor_id;sensor_type;location;lat;lon;timestamp;pressure;altitude;pressure_sealevel;temperature;humidity
60375;BME280;70244;48.792;9.172;2023-09-12T04:17:44;97185.05;;;29.14;53.86
60375;BME280;70244;48.792;9.172;2023-09-12T04:21:19;97186.11;;;29.13;54.01
60375;BME280;70244;48.792;9.172;2023-09-12T04:23:49;97187.68;;;29.02;54.14
60375;BME280;70244;48.792;9.172;2023-09-12T04:26:20;97185.43;;;28.99;54.17
60375;BME280;70244;48.792;9.172;2023-09-12T04:28:50;97179.86;;;29.02;53.93
60375;BME280;70244;48.792;9.172;2023-09-12T04:31:21;97175.40;;;29.01;54.06
60375;BME280;70244;48.792;9.172;2023-09-12T04:33:51;97182.94;;;28.83;54.75
60375;BME280;70244;48.792;9.172;2023-09-12T04:36:22;97178.57;;;29.14;53.70
60375;BME280;70244;48.792;9.172;2023-09-12T04:38:52;97171.59;;;28.92;53.69
60375;BME280;70244;48.792;9.172;2023-09-12T04:41:23;97171.51;;;28.67;53.85
60375;BME280;70244;48.792;9.172;2023-09-12T04:43:54;97169.87;;;28.10;55.22
60375;BME280;70244;48.792;9.172;2023-09-12T04:46:24;97166.76;;;28.51;54.61
60375;BME280;70244;48.792;9.172;2023-09-12T04:48:54;97168.29;;;28.89;53.75
60375;BME280;70244;48.792;9.172;2023-09-12T04:51:24;97173.17;;;28.98;53.38
60375;BME280;70244;48.792;9.172;2023-09-12T04:53:55;97175.62;;;28.74;53.67
60375;BME280;70244;48.792;9.172;2023-09-12T04:56:25;97172.74;;;28.49;53.84
60375;BME280;70244;48.792;9.172;2023-09-12T04:58:56;97173.80;;;28.30;54.77
60375;BME280;70244;48.792;9.172;2023-09-12T05:01:26;97174.06;;;28.44;54.29
60375;BME280;70244;48.792;9.172;2023-09-12T05:03:57;97174.90;;;28.33;54.39
60375;BME280;70244;48.792;9.172;2023-09-12T05:06:27;97174.04;;;28.38;54.59
60375;BME280;70244;48.792;9.172;2023-09-12T05:08:58;97176.71;;;28.67;53.96
60375;BME280;70244;48.792;9.172;2023-09-12T05:11:29;97175.30;;;28.39;54.97
60375;BME280;70244;48.792;9.172;2023-09-12T05:14:00;97179.07;;;28.51;54.44
60375;BME280;70244;48.792;9.172;2023-09-12T05:16:30;97184.71;;;27.22;57.54
60375;BME280;70244;48.792;9.172;2023-09-12T05:19:01;97186.61;;;27.84;55.82
60375;BME280;70244;48.792;9.172;2023-09-12T05:21:32;97180.07;;;26.89;57.84
60375;BME280;70244;48.792;9.172;2023-09-12T05:24:02;97175.47;;;27.62;56.02
60375;BME280;70244;48.792;9.172;2023-09-12T05:26:32;97175.87;;;27.25;56.85
60375;BME280;70244;48.792;9.172;2023-09-12T05:29:03;97177.03;;;27.39;56.47
60375;BME280;70244;48.792;9.172;2023-09-12T05:31:33;97174.76;;;27.54;56.05
60375;BME280;70244;48.792;9.172;2023-09-12T05:34:04;97178.44;;;28.23;54.52
60375;BME280;70244;48.792;9.172;2023-09-12T05:36:34;97184.42;;;28.33;54.45
60375;BME280;70244;48.792;9.172;2023-09-12T05:39:04;97189.03;;;28.53;53.96
60375;BME280;70244;48.792;9.172;2023-09-12T05:41:35;97188.77;;;28.75;53.31
60375;BME280;70244;48.792;9.172;2023-09-12T05:44:06;97186.24;;;28.78;53.36
60375;BME280;70244;48.792;9.172;2023-09-12T05:46:36;97184.05;;;28.98;52.79
60375;BME280;70244;48.792;9.172;2023-09-12T05:49:06;97191.55;;;28.28;54.28
60375;BME280;70244;48.792;9.172;2023-09-12T05:51:37;97194.08;;;27.81;55.85
60375;BME280;70244;48.792;9.172;2023-09-12T05:54:07;97195.58;;;28.12;54.90
60375;BME280;70244;48.792;9.172;2023-09-12T05:56:37;97195.88;;;28.65;53.73
60375;BME280;70244;48.792;9.172;2023-09-12T05:59:08;97195.01;;;28.55;53.87
60375;BME280;70244;48.792;9.172;2023-09-12T06:01:38;97198.90;;;28.36;54.85
60375;BME280;70244;48.792;9.172;2023-09-12T06:04:08;97200.21;;;28.54;54.50
60375;BME280;70244;48.792;9.172;2023-09-12T06:06:39;97204.56;;;28.89;53.55
60375;BME280;70244;48.792;9.172;2023-09-12T06:09:09;97206.66;;;29.17;52.89
60375;BME280;70244;48.792;9.172;2023-09-12T06:11:39;97209.30;;;29.21;52.76
60375;BME280;70244;48.792;9.172;2023-09-12T06:14:09;97212.64;;;29.35;52.51
60375;BME280;70244;48.792;9.172;2023-09-12T06:16:39;97212.51;;;29.33;52.45
60375;BME280;70244;48.792;9.172;2023-09-12T06:19:10;97214.71;;;29.44;52.18
60375;BME280;70244;48.792;9.172;2023-09-12T06:21:40;97218.34;;;29.45;52.34
60375;BME280;70244;48.792;9.172;2023-09-12T06:24:13;97217.63;;;29.42;52.29
60375;BME280;70244;48.792;9.172;2023-09-12T06:26:42;97213.49;;;29.45;52.27
60375;BME280;70244;48.792;9.172;2023-09-12T06:29:13;97212.24;;;29.51;52.07
60375;BME280;70244;48.792;9.172;2023-09-12T06:31:42;97215.58;;;29.49;52.17
60375;BME280;70244;48.792;9.172;2023-09-12T06:34:13;97220.95;;;29.38;52.46
60375;BME280;70244;48.792;9.172;2023-09-12T06:36:43;97223.98;;;29.49;52.25
60375;BME280;70244;48.792;9.172;2023-09-12T06:39:13;97222.40;;;29.53;52.16
60375;BME280;70244;48.792;9.172;2023-09-12T06:41:43;97225.84;;;29.49;52.35
60375;BME280;70244;48.792;9.172;2023-09-12T06:44:13;97228.26;;;29.45;52.45
60375;BME280;70244;48.792;9.172;2023-09-12T06:46:44;97224.15;;;29.60;52.21
60375;BME280;70244;48.792;9.172;2023-09-12T06:49:14;97223.47;;;29.64;52.11
60375;BME280;70244;48.792;9.172;2023-09-12T06:51:45;97233.35;;;29.59;52.22
60375;BME280;70244;48.792;9.172;2023-09-12T06:54:15;97239.55;;;29.60;52.22
60375;BME280;70244;48.792;9.172;2023-09-12T06:56:46;97238.65;;;29.54;52.32
60375;BME280;70244;48.792;9.172;2023-09-12T06:59:16;97240.50;;;29.54;52.36
60375;BME280;70244;48.792;9.172;2023-09-12T07:01:46;97240.75;;;29.56;52.35
60375;BME280;70244;48.792;9.172;2023-09-12T07:04:17;97241.35;;;29.61;52.26
60375;BME280;70244;48.792;9.172;2023-09-12T07:06:47;97248.64;;;29.55;52.40
60375;BME280;70244;48.792;9.172;2023-09-12T07:09:17;97250.28;;;29.42;52.74
60375;BME280;70244;48.792;9.172;2023-09-12T07:11:48;97255.23;;;29.58;52.45
60375;BME280;70244;48.792;9.172;2023-09-12T07:14:18;97253.03;;;29.62;52.30
60375;BME280;70244;48.792;9.172;2023-09-12T07:16:49;97255.21;;;29.51;52.62
60375;BME280;70244;48.792;9.172;2023-09-12T07:19:19;97257.93;;;29.45;52.77
60375;BME280;70244;48.792;9.172;2023-09-12T07:21:50;97263.98;;;29.57;52.55
60375;BME280;70244;48.792;9.172;2023-09-12T07:24:20;97263.99;;;29.70;52.25
60375;BME280;70244;48.792;9.172;2023-09-12T07:26:50;97267.96;;;29.66;52.37
60375;BME280;70244;48.792;9.172;2023-09-12T07:29:21;97270.68;;;29.46;52.84
60375;BME280;70244;48.792;9.172;2023-09-12T07:31:53;97271.88;;;29.67;52.39
60375;BME280;70244;48.792;9.172;2023-09-12T07:34:24;97269.83;;;29.67;52.35
60375;BME280;70244;48.792;9.172;2023-09-12T07:36:53;97267.56;;;29.53;52.68
60375;BME280;70244;48.792;9.172;2023-09-12T07:39:23;97272.58;;;29.61;52.55
60375;BME280;70244;48.792;9.172;2023-09-12T07:41:54;97270.25;;;29.56;52.67
60375;BME280;70244;48.792;9.172;2023-09-12T07:44:24;97269.49;;;29.52;52.78
60375;BME280;70244;48.792;9.172;2023-09-12T07:46:55;97268.59;;;29.62;52.55
60375;BME280;70244;48.792;9.172;2023-09-12T07:49:25;97264.69;;;29.55;52.74
60375;BME280;70244;48.792;9.172;2023-09-12T07:51:56;97267.26;;;29.68;52.51
60375;BME280;70244;48.792;9.172;2023-09-12T07:54:26;97266.01;;;29.71;52.42
60375;BME280;70244;48.792;9.172;2023-09-12T07:56:57;97267.61;;;29.60;52.70
60375;BME280;70244;48.792;9.172;2023-09-12T07:59:27;97266.35;;;29.69;52.55
60375;BME280;70244;48.792;9.172;2023-09-12T08:01:57;97266.20;;;29.59;52.76
60375;BME280;70244;48.792;9.172;2023-09-12T08:04:28;97265.00;;;29.61;52.72
60375;BME280;70244;48.792;9.172;2023-09-12T08:06:57;97264.05;;;29.56;52.81
60375;BME280;70244;48.792;9.172;2023-09-12T08:11:58;97268.31;;;29.75;52.47
60375;BME280;70244;48.792;9.172;2023-09-12T08:14:28;97273.69;;;29.67;52.62
60375;BME280;70244;48.792;9.172;2023-09-12T08:16:59;97273.72;;;29.65;52.67
60375;BME280;70244;48.792;9.172;2023-09-12T08:19:29;97273.59;;;29.68;52.63
60375;BME280;70244;48.792;9.172;2023-09-12T08:21:59;97275.04;;;29.70;52.57
60375;BME280;70244;48.792;9.172;2023-09-12T08:24:29;97274.11;;;29.80;52.43
60375;BME280;70244;48.792;9.172;2023-09-12T08:27:00;97272.08;;;29.68;52.66
60375;BME280;70244;48.792;9.172;2023-09-12T08:29:31;97270.43;;;29.60;52.88
60375;BME280;70244;48.792;9.172;2023-09-12T08:32:02;97272.62;;;29.71;52.65
60375;BME280;70244;48.792;9.172;2023-09-12T08:34:31;97271.64;;;29.67;52.77
60375;BME280;70244;48.792;9.172;2023-09-12T08:37:02;97268.95;;;29.73;52.62
60375;BME280;70244;48.792;9.172;2023-09-12T08:39:41;97268.10;;;29.73;52.65
60375;BME280;70244;48.792;9.172;2023-09-12T08:42:03;97266.91;;;29.77;52.57
60375;BME280;70244;48.792;9.172;2023-09-12T08:44:33;97268.34;;;29.75;52.63
60375;BME280;70244;48.792;9.172;2023-09-12T08:47:03;97270.22;;;29.67;52.83
60375;BME280;70244;48.792;9.172;2023-09-12T08:49:35;97274.26;;;29.73;52.70
60375;BME280;70244;48.792;9.172;2023-09-12T08:52:05;97278.20;;;29.72;52.72
60375;BME280;70244;48.792;9.172;2023-09-12T08:54:35;97276.86;;;29.68;52.81
60375;BME280;70244;48.792;9.172;2023-09-12T08:57:06;97274.27;;;29.77;52.63
60375;BME280;70244;48.792;9.172;2023-09-12T08:59:37;97272.55;;;29.75;52.77
60375;BME280;70244;48.792;9.172;2023-09-12T09:02:08;97274.53;;;29.74;52.73
60375;BME280;70244;48.792;9.172;2023-09-12T09:04:39;97273.38;;;29.67;52.92
60375;BME280;70244;48.792;9.172;2023-09-12T09:07:07;97274.68;;;29.79;52.63
60375;BME280;70244;48.792;9.172;2023-09-12T09:09:38;97271.73;;;29.76;52.71
60375;BME280;70244;48.792;9.172;2023-09-12T09:12:09;97271.71;;;29.58;53.08
60375;BME280;70244;48.792;9.172;2023-09-12T09:14:40;97269.70;;;29.83;52.57
60375;BME280;70244;48.792;9.172;2023-09-12T09:17:09;97268.08;;;29.72;52.84
60375;BME280;70244;48.792;9.172;2023-09-12T09:19:41;97268.87;;;29.66;52.98
60375;BME280;70244;48.792;9.172;2023-09-12T09:22:15;97266.57;;;29.75;52.81
60375;BME280;70244;48.792;9.172;2023-09-12T09:24:40;97263.78;;;29.74;52.83
60375;BME280;70244;48.792;9.172;2023-09-12T09:27:10;97260.19;;;29.74;52.82
60375;BME280;70244;48.792;9.172;2023-09-12T09:29:46;97253.25;;;29.77;52.84
60375;BME280;70244;48.792;9.172;2023-09-12T09:32:17;97247.97;;;29.86;52.62
60375;BME280;70244;48.792;9.172;2023-09-12T09:34:42;97244.79;;;29.80;52.76
60375;BME280;70244;48.792;9.172;2023-09-12T09:37:13;97244.11;;;29.89;52.58
60375;BME280;70244;48.792;9.172;2023-09-12T09:39:43;97238.35;;;29.77;52.83
60375;BME280;70244;48.792;9.172;2023-09-12T09:42:13;97236.50;;;29.82;52.72
60375;BME280;70244;48.792;9.172;2023-09-12T09:44:44;97239.18;;;29.82;52.73
60375;BME280;70244;48.792;9.172;2023-09-12T09:47:14;97242.17;;;29.89;52.69
60375;BME280;70244;48.792;9.172;2023-09-12T09:49:45;97244.46;;;29.83;52.75
60375;BME280;70244;48.792;9.172;2023-09-12T09:52:14;97243.67;;;29.83;52.74
60375;BME280;70244;48.792;9.172;2023-09-12T09:54:45;97240.69;;;29.86;52.73
60375;BME280;70244;48.792;9.172;2023-09-12T09:57:20;97239.22;;;29.85;52.71
60375;BME280;70244;48.792;9.172;2023-09-12T09:59:49;97239.30;;;29.89;52.66
60375;BME280;70244;48.792;9.172;2023-09-12T10:02:18;97235.62;;;29.91;52.64
60375;BME280;70244;48.792;9.172;2023-09-12T10:04:48;97230.87;;;29.93;52.68
60375;BME280;70244;48.792;9.172;2023-09-12T10:07:18;97226.76;;;29.97;52.62
60375;BME280;70244;48.792;9.172;2023-09-12T10:09:48;97222.76;;;29.99;52.55
60375;BME280;70244;48.792;9.172;2023-09-12T10:12:18;97218.69;;;29.94;52.66
60375;BME280;70244;48.792;9.172;2023-09-12T10:14:49;97220.36;;;29.87;52.79
60375;BME280;70244;48.792;9.172;2023-09-12T10:17:21;97220.57;;;29.97;52.66
60375;BME280;70244;48.792;9.172;2023-09-12T10:19:55;97218.62;;;29.92;52.74
60375;BME280;70244;48.792;9.172;2023-09-12T10:22:23;97221.09;;;30.00;52.60
60375;BME280;70244;48.792;9.172;2023-09-12T10:24:51;97221.62;;;30.00;52.60
60375;BME280;70244;48.792;9.172;2023-09-12T10:27:22;97221.29;;;29.97;52.67
60375;BME280;70244;48.792;9.172;2023-09-12T10:29:52;97223.11;;;30.02;52.55
60375;BME280;70244;48.792;9.172;2023-09-12T10:32:22;97224.63;;;29.96;52.71
60375;BME280;70244;48.792;9.172;2023-09-12T10:34:53;97222.83;;;29.98;52.67
60375;BME280;70244;48.792;9.172;2023-09-12T10:37:25;97222.90;;;29.89;52.89
60375;BME280;70244;48.792;9.172;2023-09-12T10:39:54;97221.10;;;30.00;52.71
60375;BME280;70244;48.792;9.172;2023-09-12T10:42:26;97219.77;;;30.01;52.68
60375;BME280;70244;48.792;9.172;2023-09-12T10:44:55;97221.66;;;29.99;52.74
60375;BME280;70244;48.792;9.172;2023-09-12T10:47:25;97225.34;;;29.97;52.75
60375;BME280;70244;48.792;9.172;2023-09-12T10:49:55;97221.48;;;29.94;52.77
60375;BME280;70244;48.792;9.172;2023-09-12T10:52:26;97223.96;;;29.97;52.77
60375;BME280;70244;48.792;9.172;2023-09-12T10:54:56;97222.00;;;29.98;52.73
60375;BME280;70244;48.792;9.172;2023-09-12T10:57:26;97223.34;;;30.02;52.71
60375;BME280;70244;48.792;9.172;2023-09-12T11:02:27;97223.24;;;29.99;52.81
60375;BME280;70244;48.792;9.172;2023-09-12T11:04:58;97222.41;;;30.01;52.78
60375;BME280;70244;48.792;9.172;2023-09-12T11:07:32;97220.18;;;29.99;52.79
60375;BME280;70244;48.792;9.172;2023-09-12T11:12:34;97210.59;;;30.04;52.70
60375;BME280;70244;48.792;9.172;2023-09-12T11:15:03;97207.21;;;30.09;52.59
60375;BME280;70244;48.792;9.172;2023-09-12T11:17:28;97204.82;;;30.10;52.59
60375;BME280;70244;48.792;9.172;2023-09-12T11:20:03;97203.81;;;30.01;52.82
60375;BME280;70244;48.792;9.172;2023-09-12T11:22:31;97205.56;;;30.14;52.51
60375;BME280;70244;48.792;9.172;2023-09-12T11:25:02;97202.76;;;30.16;52.41
60375;BME280;70244;48.792;9.172;2023-09-12T11:27:32;97203.42;;;30.11;52.52
60375;BME280;70244;48.792;9.172;2023-09-12T11:30:05;97202.90;;;30.15;52.43
60375;BME280;70244;48.792;9.172;2023-09-12T11:32:34;97202.59;;;30.17;52.35
60375;BME280;70244;48.792;9.172;2023-09-12T11:35:05;97194.80;;;30.18;52.32
60375;BME280;70244;48.792;9.172;2023-09-12T11:37:33;97189.16;;;30.13;52.39
60375;BME280;70244;48.792;9.172;2023-09-12T11:42:39;97182.38;;;30.19;52.35
60375;BME280;70244;48.792;9.172;2023-09-12T11:45:08;97181.41;;;30.18;52.39
60375;BME280;70244;48.792;9.172;2023-09-12T11:47:36;97180.70;;;30.19;52.27
60375;BME280;70244;48.792;9.172;2023-09-12T11:50:05;97179.89;;;30.25;52.15
60375;BME280;70244;48.792;9.172;2023-09-12T11:52:36;97181.43;;;30.19;52.22
60375;BME280;70244;48.792;9.172;2023-09-12T11:55:06;97180.92;;;30.18;52.25
60375;BME280;70244;48.792;9.172;2023-09-12T11:57:35;97175.86;;;30.19;52.23
60375;BME280;70244;48.792;9.172;2023-09-12T12:00:07;97173.17;;;30.22;52.27
60375;BME280;70244;48.792;9.172;2023-09-12T12:02:36;97167.09;;;30.23;52.21
60375;BME280;70244;48.792;9.172;2023-09-12T12:05:07;97167.66;;;30.19;52.29
60375;BME280;70244;48.792;9.172;2023-09-12T12:07:38;97167.94;;;30.26;52.29
60375;BME280;70244;48.792;9.172;2023-09-12T12:10:08;97169.90;;;30.29;52.17
60375;BME280;70244;48.792;9.172;2023-09-12T12:12:39;97174.76;;;30.30;52.02
60375;BME280;70244;48.792;9.172;2023-09-12T12:15:10;97178.03;;;30.26;52.29
60375;BME280;70244;48.792;9.172;2023-09-12T12:17:40;97170.41;;;30.35;52.14
60375;BME280;70244;48.792;9.172;2023-09-12T12:20:10;97165.18;;;30.37;52.14
60375;BME280;70244;48.792;9.172;2023-09-12T12:22:41;97157.12;;;30.40;51.96
60375;BME280;70244;48.792;9.172;2023-09-12T12:25:13;97156.14;;;30.45;51.84
60375;BME280;70244;48.792;9.172;2023-09-12T12:27:42;97153.43;;;30.44;51.88
60375;BME280;70244;48.792;9.172;2023-09-12T12:30:13;97149.52;;;30.48;51.76
60375;BME280;70244;48.792;9.172;2023-09-12T12:32:43;97149.09;;;30.36;51.85
60375;BME280;70244;48.792;9.172;2023-09-12T12:35:17;97144.58;;;30.32;51.97
60375;BME280;70244;48.792;9.172;2023-09-12T12:37:43;97142.62;;;30.34;52.07
60375;BME280;70244;48.792;9.172;2023-09-12T12:40:13;97144.53;;;30.37;52.02
60375;BME280;70244;48.792;9.172;2023-09-12T12:42:44;97140.00;;;30.42;51.87
60375;BME280;70244;48.792;9.172;2023-09-12T12:45:14;97142.60;;;30.40;51.89
60375;BME280;70244;48.792;9.172;2023-09-12T12:47:43;97140.97;;;30.41;51.63
60375;BME280;70244;48.792;9.172;2023-09-12T12:50:14;97143.10;;;30.41;51.82
60375;BME280;70244;48.792;9.172;2023-09-12T12:52:47;97144.19;;;30.40;51.79
60375;BME280;70244;48.792;9.172;2023-09-12T12:55:15;97142.57;;;30.41;51.71
60375;BME280;70244;48.792;9.172;2023-09-12T12:57:48;97137.66;;;30.37;51.84
60375;BME280;70244;48.792;9.172;2023-09-12T13:00:17;97138.63;;;30.39;51.84
60375;BME280;70244;48.792;9.172;2023-09-12T13:02:47;97132.84;;;30.45;51.60
60375;BME280;70244;48.792;9.172;2023-09-12T13:05:21;97132.02;;;30.53;51.35
60375;BME280;70244;48.792;9.172;2023-09-12T13:07:49;97130.26;;;30.52;51.41
60375;BME280;70244;48.792;9.172;2023-09-12T13:10:18;97121.66;;;30.53;51.25
60375;BME280;70244;48.792;9.172;2023-09-12T13:12:48;97119.19;;;30.55;51.26
60375;BME280;70244;48.792;9.172;2023-09-12T13:15:19;97117.86;;;30.47;51.27
60375;BME280;70244;48.792;9.172;2023-09-12T13:17:49;97111.49;;;30.46;51.36
60375;BME280;70244;48.792;9.172;2023-09-12T13:20:20;97104.04;;;30.47;51.39
60375;BME280;70244;48.792;9.172;2023-09-12T13:22:50;97102.08;;;30.46;51.58
60375;BME280;70244;48.792;9.172;2023-09-12T13:25:21;97102.22;;;30.48;51.42
60375;BME280;70244;48.792;9.172;2023-09-12T13:27:51;97109.40;;;30.45;51.55
60375;BME280;70244;48.792;9.172;2023-09-12T13:30:22;97112.28;;;30.47;51.54
60375;BME280;70244;48.792;9.172;2023-09-12T13:32:52;97109.19;;;30.51;51.35
60375;BME280;70244;48.792;9.172;2023-09-12T13:35:23;97108.46;;;30.48;51.35
60375;BME280;70244;48.792;9.172;2023-09-12T13:37:53;97109.45;;;30.51;51.25
60375;BME280;70244;48.792;9.172;2023-09-12T13:40:29;97109.42;;;30.50;51.27
60375;BME280;70244;48.792;9.172;2023-09-12T13:42:54;97108.31;;;30.52;51.31
60375;BME280;70244;48.792;9.172;2023-09-12T13:45:24;97106.89;;;30.55;51.36
60375;BME280;70244;48.792;9.172;2023-09-12T13:47:55;97108.76;;;30.55;51.33
60375;BME280;70244;48.792;9.172;2023-09-12T13:50:25;97105.84;;;30.47;51.48
60375;BME280;70244;48.792;9.172;2023-09-12T13:52:57;97100.61;;;30.44;51.45
60375;BME280;70244;48.792;9.172;2023-09-12T13:55:26;97096.13;;;30.53;51.47
60375;BME280;70244;48.792;9.172;2023-09-12T13:57:57;97097.64;;;30.55;51.29
60375;BME280;70244;48.792;9.172;2023-09-12T14:00:27;97096.30;;;30.54;51.26
60375;BME280;70244;48.792;9.172;2023-09-12T14:02:57;97093.34;;;30.55;51.25
60375;BME280;70244;48.792;9.172;2023-09-12T14:05:28;97095.14;;;30.55;51.23
60375;BME280;70244;48.792;9.172;2023-09-12T14:07:58;97093.69;;;30.54;51.20
60375;BME280;70244;48.792;9.172;2023-09-12T14:10:28;97093.38;;;30.57;51.30
60375;BME280;70244;48.792;9.172;2023-09-12T14:12:58;97093.04;;;30.55;51.28
60375;BME280;70244;48.792;9.172;2023-09-12T14:15:28;97092.43;;;30.53;51.21
60375;BME280;70244;48.792;9.172;2023-09-12T14:17:58;97093.76;;;30.53;51.31
60375;BME280;70244;48.792;9.172;2023-09-12T14:20:29;97095.01;;;30.56;51.24
60375;BME280;70244;48.792;9.172;2023-09-12T14:23:04;97106.13;;;30.53;51.27
60375;BME280;70244;48.792;9.172;2023-09-12T14:25:30;97103.72;;;30.56;51.33
60375;BME280;70244;48.792;9.172;2023-09-12T14:28:00;97104.35;;;30.52;51.30
60375;BME280;70244;48.792;9.172;2023-09-12T14:30:31;97104.15;;;30.54;51.43
60375;BME280;70244;48.792;9.172;2023-09-12T14:33:01;97105.64;;;30.37;52.28
60375;BME280;70244;48.792;9.172;2023-09-12T14:35:32;97104.53;;;30.41;51.89
60375;BME280;70244;48.792;9.172;2023-09-12T14:38:03;97104.42;;;30.42;52.89
60375;BME280;70244;48.792;9.172;2023-09-12T14:40:33;97103.96;;;30.08;53.97
60375;BME280;70244;48.792;9.172;2023-09-12T14:43:03;97107.04;;;30.30;53.52
60375;BME280;70244;48.792;9.172;2023-09-12T14:45:34;97105.62;;;30.22;54.88
60375;BME280;70244;48.792;9.172;2023-09-12T14:48:05;97109.37;;;29.96;56.49
60375;BME280;70244;48.792;9.172;2023-09-12T14:50:35;97108.50;;;30.45;54.75
60375;BME280;70244;48.792;9.172;2023-09-12T14:53:06;97110.68;;;30.34;54.88
60375;BME280;70244;48.792;9.172;2023-09-12T14:55:36;97110.49;;;30.56;53.99
60375;BME280;70244;48.792;9.172;2023-09-12T14:58:06;97114.12;;;30.62;53.43
60375;BME280;70244;48.792;9.172;2023-09-12T15:00:36;97111.94;;;30.64;53.31
60375;BME280;70244;48.792;9.172;2023-09-12T15:03:06;97111.20;;;30.60;53.87
60375;BME280;70244;48.792;9.172;2023-09-12T15:05:36;97110.84;;;30.58;53.65
60375;BME280;70244;48.792;9.172;2023-09-12T15:08:06;97112.67;;;30.68;53.48
60375;BME280;70244;48.792;9.172;2023-09-12T15:10:37;97110.78;;;30.73;53.38
60375;BME280;70244;48.792;9.172;2023-09-12T15:13:08;97111.08;;;30.65;53.79
60375;BME280;70244;48.792;9.172;2023-09-12T15:15:38;97108.18;;;30.72;53.29
60375;BME280;70244;48.792;9.172;2023-09-12T15:18:08;97107.49;;;30.76;53.28
60375;BME280;70244;48.792;9.172;2023-09-12T15:20:39;97111.29;;;30.66;54.02
60375;BME280;70244;48.792;9.172;2023-09-12T15:23:09;97106.78;;;30.67;53.83
60375;BME280;70244;48.792;9.172;2023-09-12T15:25:39;97103.15;;;30.78;53.35
60375;BME280;70244;48.792;9.172;2023-09-12T15:28:10;97100.05;;;30.83;53.27
60375;BME280;70244;48.792;9.172;2023-09-12T15:30:40;97099.86;;;30.82;53.52
60375;BME280;70244;48.792;9.172;2023-09-12T15:33:11;97102.50;;;30.81;53.48
60375;BME280;70244;48.792;9.172;2023-09-12T15:35:41;97095.09;;;30.84;53.25
60375;BME280;70244;48.792;9.172;2023-09-12T15:38:11;97085.07;;;30.75;53.59
60375;BME280;70244;48.792;9.172;2023-09-12T15:40:42;97087.06;;;30.80;53.68
60375;BME280;70244;48.792;9.172;2023-09-12T15:43:12;97093.15;;;30.85;53.52
60375;BME280;70244;48.792;9.172;2023-09-12T15:45:43;97100.86;;;30.84;53.61
60375;BME280;70244;48.792;9.172;2023-09-12T15:48:13;97098.15;;;30.83;53.45
60375;BME280;70244;48.792;9.172;2023-09-12T15:50:43;97096.41;;;30.82;53.40
60375;BME280;70244;48.792;9.172;2023-09-12T15:53:14;97091.93;;;30.79;53.56
60375;BME280;70244;48.792;9.172;2023-09-12T15:55:44;97090.12;;;30.82;53.35
60375;BME280;70244;48.792;9.172;2023-09-12T15:58:15;97088.87;;;30.79;53.63
60375;BME280;70244;48.792;9.172;2023-09-12T16:00:45;97085.83;;;30.81;53.34
60375;BME280;70244;48.792;9.172;2023-09-12T16:03:16;97083.98;;;30.80;53.21
60375;BME280;70244;48.792;9.172;2023-09-12T16:05:46;97087.07;;;30.85;53.08
60375;BME280;70244;48.792;9.172;2023-09-12T16:08:16;97089.96;;;30.76;53.69
60375;BME280;70244;48.792;9.172;2023-09-12T16:10:48;97086.26;;;30.64;53.38
60375;BME280;70244;48.792;9.172;2023-09-12T16:13:17;97080.47;;;30.82;52.89
60375;BME280;70244;48.792;9.172;2023-09-12T16:15:48;97077.60;;;31.01;52.12
60375;BME280;70244;48.792;9.172;2023-09-12T16:18:19;97080.24;;;31.01;52.41
60375;BME280;70244;48.792;9.172;2023-09-12T16:20:49;97084.53;;;31.01;52.56
60375;BME280;70244;48.792;9.172;2023-09-12T16:23:20;97081.21;;;31.02;52.55
60375;BME280;70244;48.792;9.172;2023-09-12T16:25:50;97076.89;;;31.11;52.18
60375;BME280;70244;48.792;9.172;2023-09-12T16:28:20;97069.48;;;31.03;52.43
60375;BME280;70244;48.792;9.172;2023-09-12T16:30:50;97063.26;;;31.08;52.37
60375;BME280;70244;48.792;9.172;2023-09-12T16:33:20;97062.24;;;31.04;52.45
60375;BME280;70244;48.792;9.172;2023-09-12T16:35:51;97061.57;;;31.00;52.40
60375;BME280;70244;48.792;9.172;2023-09-12T16:38:22;97061.45;;;31.06;52.36
60375;BME280;70244;48.792;9.172;2023-09-12T16:40:52;97064.81;;;31.14;52.23
60375;BME280;70244;48.792;9.172;2023-09-12T16:43:23;97065.05;;;31.06;52.31
60375;BME280;70244;48.792;9.172;2023-09-12T16:45:53;97069.97;;;30.88;52.58
60375;BME280;70244;48.792;9.172;2023-09-12T16:48:23;97074.55;;;30.94;52.42
60375;BME280;70244;48.792;9.172;2023-09-12T16:50:53;97078.61;;;30.86;52.67
60375;BME280;70244;48.792;9.172;2023-09-12T16:53:24;97078.73;;;30.75;52.84
60375;BME280;70244;48.792;9.172;2023-09-12T16:55:54;97078.39;;;30.85;52.76
60375;BME280;70244;48.792;9.172;2023-09-12T16:58:25;97075.45;;;30.91;52.45
60375;BME280;70244;48.792;9.172;2023-09-12T17:00:55;97076.42;;;30.94;52.44
60375;BME280;70244;48.792;9.172;2023-09-12T17:03:25;97078.62;;;30.87;52.41
60375;BME280;70244;48.792;9.172;2023-09-12T17:05:56;97094.81;;;30.77;53.27
60375;BME280;70244;48.792;9.172;2023-09-12T17:08:26;97096.62;;;30.93;52.68
60375;BME280;70244;48.792;9.172;2023-09-12T17:10:57;97101.50;;;30.92;52.82
60375;BME280;70244;48.792;9.172;2023-09-12T17:13:32;97113.88;;;30.89;52.75
60375;BME280;70244;48.792;9.172;2023-09-12T17:15:58;97119.33;;;30.92;52.78
60375;BME280;70244;48.792;9.172;2023-09-12T17:18:28;97115.55;;;30.97;52.59
60375;BME280;70244;48.792;9.172;2023-09-12T17:20:58;97109.56;;;30.93;52.46
60375;BME280;70244;48.792;9.172;2023-09-12T17:23:28;97115.26;;;30.90;52.48
60375;BME280;70244;48.792;9.172;2023-09-12T17:25:59;97115.81;;;30.91;52.49
60375;BME280;70244;48.792;9.172;2023-09-12T17:28:29;97116.40;;;30.91;52.41
60375;BME280;70244;48.792;9.172;2023-09-12T17:31:00;97117.56;;;30.94;52.35
60375;BME280;70244;48.792;9.172;2023-09-12T17:33:30;97119.41;;;30.96;51.83
60375;BME280;70244;48.792;9.172;2023-09-12T17:36:01;97120.03;;;30.96;51.80
60375;BME280;70244;48.792;9.172;2023-09-12T17:38:31;97118.01;;;30.91;51.24
60375;BME280;70244;48.792;9.172;2023-09-12T17:41:01;97118.35;;;30.87;51.86
60375;BME280;70244;48.792;9.172;2023-09-12T17:43:32;97115.77;;;30.74;51.93